createdAt,value
2022-09-24T00:00:53.493Z,11.80
2022-09-24T00:01:56.499Z,11.80
2022-09-24T00:02:58.851Z,11.70
2022-09-24T00:04:05.750Z,11.70
2022-09-24T00:05:08.486Z,11.80
2022-09-24T00:06:12.334Z,11.80
2022-09-24T00:07:15.268Z,11.80
2022-09-24T00:08:18.394Z,11.80
2022-09-24T00:09:23.185Z,11.80
2022-09-24T00:10:26.484Z,11.80
2022-09-24T00:11:30.026Z,11.80
2022-09-24T00:12:32.157Z,11.80
2022-09-24T00:13:36.106Z,11.80
2022-09-24T00:14:37.999Z,11.80
2022-09-24T00:15:43.570Z,11.80
2022-09-24T00:16:47.007Z,11.80
2022-09-24T00:17:48.928Z,11.80
2022-09-24T00:18:51.992Z,11.90
2022-09-24T00:19:53.937Z,11.80
2022-09-24T00:20:57.157Z,11.80
2022-09-24T00:21:59.059Z,11.80
2022-09-24T00:23:02.530Z,11.80
2022-09-24T00:24:08.100Z,11.80
2022-09-24T00:25:28.601Z,11.70
2022-09-24T00:26:49.717Z,11.80
2022-09-24T00:27:51.689Z,11.80
2022-09-24T00:28:54.571Z,11.70
2022-09-24T00:29:56.814Z,11.70
2022-09-24T00:31:00.809Z,11.70
2022-09-24T00:32:03.911Z,11.70
2022-09-24T00:33:07.145Z,11.70
2022-09-24T00:34:09.247Z,11.70
2022-09-24T00:35:12.175Z,11.70
2022-09-24T00:36:14.857Z,11.70
2022-09-24T00:37:18.574Z,11.70
2022-09-24T00:38:20.470Z,11.70
2022-09-24T00:39:23.382Z,11.70
2022-09-24T00:40:28.221Z,11.70
2022-09-24T00:41:35.070Z,11.70
2022-09-24T00:42:36.987Z,11.70
2022-09-24T00:43:40.057Z,11.70
2022-09-24T00:45:05.261Z,11.70
2022-09-24T00:46:14.864Z,11.70
2022-09-24T00:47:27.581Z,11.70
2022-09-24T00:48:30.254Z,11.60
2022-09-24T00:49:33.195Z,11.70
2022-09-24T00:50:35.821Z,11.70
2022-09-24T00:51:39.335Z,11.70
2022-09-24T00:52:44.879Z,11.60
2022-09-24T00:53:50.766Z,11.60
2022-09-24T00:54:53.689Z,11.60
2022-09-24T00:55:57.763Z,11.60
2022-09-24T00:57:01.813Z,11.50
2022-09-24T00:58:08.208Z,11.60
2022-09-24T00:59:16.885Z,11.50
2022-09-24T01:00:20.281Z,11.60
2022-09-24T01:01:25.214Z,11.60
2022-09-24T01:02:28.488Z,11.60
2022-09-24T01:03:32.424Z,11.60
2022-09-24T01:04:35.318Z,11.60
2022-09-24T01:05:39.127Z,11.60
2022-09-24T01:06:42.110Z,11.60
2022-09-24T01:07:45.227Z,11.70
2022-09-24T01:08:48.462Z,11.70
2022-09-24T01:09:50.421Z,11.70
2022-09-24T01:11:08.379Z,11.80
2022-09-24T01:12:17.286Z,11.70
2022-09-24T01:13:43.430Z,11.80
2022-09-24T01:14:59.503Z,11.70
2022-09-24T01:16:07.614Z,11.60
2022-09-24T01:17:23.045Z,11.70
2022-09-24T01:18:33.149Z,11.60
2022-09-24T01:20:02.843Z,11.60
2022-09-24T01:21:28.529Z,11.60
2022-09-24T01:22:47.005Z,11.70
2022-09-24T01:24:06.900Z,11.70
2022-09-24T01:25:20.606Z,11.70
2022-09-24T01:26:47.887Z,11.70
2022-09-24T01:28:07.739Z,11.70
2022-09-24T01:29:46.025Z,11.60
2022-09-24T01:30:50.471Z,11.70
2022-09-24T01:32:02.045Z,11.50
2022-09-24T01:33:08.526Z,11.60
2022-09-24T01:34:14.930Z,11.60
2022-09-24T01:35:22.649Z,11.70
2022-09-24T01:36:26.887Z,11.60
2022-09-24T01:37:34.276Z,11.60
2022-09-24T01:38:40.774Z,11.50
2022-09-24T01:39:45.886Z,11.60
2022-09-24T01:40:49.568Z,11.60
2022-09-24T01:41:53.346Z,11.60
2022-09-24T01:42:57.215Z,11.60
2022-09-24T01:44:01.866Z,11.60
2022-09-24T01:45:06.595Z,11.50
2022-09-24T01:46:10.226Z,11.50
2022-09-24T01:47:18.624Z,11.50
2022-09-24T01:48:23.245Z,11.50
2022-09-24T01:49:26.211Z,11.50
2022-09-24T01:50:33.594Z,11.60
2022-09-24T01:51:42.083Z,11.70
2022-09-24T01:52:49.916Z,11.60
2022-09-24T01:53:57.162Z,11.60
2022-09-24T01:55:04.083Z,11.70
2022-09-24T01:56:11.037Z,11.60
2022-09-24T01:57:19.158Z,11.60
2022-09-24T01:58:27.905Z,11.60
2022-09-24T01:59:36.721Z,11.60
2022-09-24T02:00:45.672Z,11.70
2022-09-24T02:01:52.044Z,11.50
2022-09-24T02:03:00.063Z,11.50
2022-09-24T02:04:08.202Z,11.50
2022-09-24T02:05:15.916Z,11.50
2022-09-24T02:06:24.211Z,11.50
2022-09-24T02:07:33.406Z,11.40
2022-09-24T02:08:40.857Z,11.40
2022-09-24T02:09:44.058Z,11.40
2022-09-24T02:10:52.699Z,11.50
2022-09-24T02:11:56.760Z,11.50
2022-09-24T02:13:04.646Z,11.50
2022-09-24T02:14:10.925Z,11.50
2022-09-24T02:15:18.562Z,11.50
2022-09-24T02:16:26.329Z,11.50
2022-09-24T02:17:33.775Z,11.40
2022-09-24T02:18:39.535Z,11.50
2022-09-24T02:19:43.606Z,11.50
2022-09-24T02:20:47.346Z,11.50
2022-09-24T02:21:52.115Z,11.50
2022-09-24T02:22:57.089Z,11.50
2022-09-24T02:25:23.202Z,11.50
2022-09-24T02:26:25.226Z,11.50
2022-09-24T02:27:29.022Z,11.50
2022-09-24T02:28:33.004Z,11.40
2022-09-24T02:29:36.005Z,11.60
2022-09-24T02:30:41.987Z,11.40
2022-09-24T02:31:49.099Z,11.50
2022-09-24T02:32:53.294Z,11.50
2022-09-24T02:34:15.905Z,11.50
2022-09-24T02:35:19.407Z,11.70
2022-09-24T02:36:25.013Z,11.50
2022-09-24T02:37:27.951Z,11.50
2022-09-24T02:38:29.878Z,11.50
2022-09-24T02:39:32.986Z,11.50
2022-09-24T02:40:35.078Z,11.50
2022-09-24T02:41:38.637Z,11.50
2022-09-24T02:42:42.382Z,11.40
2022-09-24T02:43:45.365Z,11.50
2022-09-24T02:44:47.484Z,11.40
2022-09-24T02:45:50.411Z,11.40
2022-09-24T02:46:53.745Z,11.40
2022-09-24T02:47:57.358Z,11.40
2022-09-24T02:48:59.326Z,11.30
2022-09-24T02:50:02.608Z,11.40
2022-09-24T02:51:05.267Z,11.40
2022-09-24T02:52:08.248Z,11.50
2022-09-24T02:53:10.181Z,11.50
2022-09-24T02:54:13.118Z,11.50
2022-09-24T02:55:15.190Z,11.50
2022-09-24T02:56:18.125Z,11.50
2022-09-24T02:57:20.318Z,11.40
2022-09-24T02:58:23.298Z,11.40
2022-09-24T02:59:25.292Z,11.40
2022-09-24T03:00:28.886Z,11.30
2022-09-24T03:01:31.827Z,11.40
2022-09-24T03:02:36.186Z,11.30
2022-09-24T03:03:38.209Z,11.30
2022-09-24T03:04:41.225Z,11.40
2022-09-24T03:05:43.117Z,11.40
2022-09-24T03:06:46.057Z,11.40
2022-09-24T03:07:47.990Z,11.30
2022-09-24T03:08:50.889Z,11.30
2022-09-24T03:09:52.812Z,11.30
2022-09-24T03:10:56.586Z,11.30
2022-09-24T03:12:00.806Z,11.30
2022-09-24T03:13:03.751Z,11.30
2022-09-24T03:14:05.734Z,11.20
2022-09-24T03:15:09.266Z,11.30
2022-09-24T03:16:11.323Z,11.20
2022-09-24T03:17:14.241Z,11.30
2022-09-24T03:18:17.540Z,11.20
2022-09-24T03:19:20.444Z,11.20
2022-09-24T03:20:24.142Z,11.20
2022-09-24T03:21:27.129Z,11.30
2022-09-24T03:22:29.051Z,11.20
2022-09-24T03:23:32.303Z,11.30
2022-09-24T03:24:34.206Z,11.30
2022-09-24T03:25:37.122Z,11.30
2022-09-24T03:26:39.974Z,11.30
2022-09-24T03:27:42.878Z,11.30
2022-09-24T03:28:45.134Z,11.20
2022-09-24T03:30:01.936Z,11.20
2022-09-24T03:31:05.378Z,11.20
2022-09-24T03:32:07.446Z,11.20
2022-09-24T03:33:09.374Z,11.30
2022-09-24T03:34:13.726Z,11.20
2022-09-24T03:35:15.736Z,11.30
2022-09-24T03:36:20.187Z,11.30
2022-09-24T03:37:22.137Z,11.20
2022-09-24T03:38:25.110Z,11.20
2022-09-24T03:39:27.001Z,11.30
2022-09-24T03:40:30.024Z,11.20
2022-09-24T03:41:33.005Z,11.20
2022-09-24T03:42:34.959Z,11.20
2022-09-24T03:43:38.390Z,11.10
2022-09-24T03:44:40.298Z,11.10
2022-09-24T03:45:43.196Z,11.10
2022-09-24T03:46:45.173Z,11.10
2022-09-24T03:47:48.293Z,11.10
2022-09-24T03:48:51.216Z,11.10
2022-09-24T03:49:54.677Z,11.00
2022-09-24T03:50:58.037Z,11.00
2022-09-24T03:51:59.954Z,11.00
2022-09-24T03:53:02.893Z,11.10
2022-09-24T03:54:06.030Z,11.10
2022-09-24T03:55:09.032Z,11.10
2022-09-24T03:56:12.782Z,11.10
2022-09-24T03:57:14.950Z,11.20
2022-09-24T03:58:18.015Z,11.10
2022-09-24T03:59:19.918Z,11.20
2022-09-24T04:00:23.572Z,11.20
2022-09-24T04:01:25.537Z,11.20
2022-09-24T04:02:28.577Z,11.20
2022-09-24T04:03:30.623Z,11.20
2022-09-24T04:04:33.522Z,11.20
2022-09-24T04:05:37.438Z,11.20
2022-09-24T04:06:40.337Z,11.20
2022-09-24T04:07:43.055Z,11.20
2022-09-24T04:08:46.017Z,11.20
2022-09-24T04:09:48.476Z,11.20
2022-09-24T04:10:52.301Z,11.20
2022-09-24T04:11:54.259Z,11.20
2022-09-24T04:12:57.206Z,11.20
2022-09-24T04:14:00.125Z,11.20
2022-09-24T04:15:02.930Z,11.20
2022-09-24T04:16:06.407Z,11.30
2022-09-24T04:17:09.732Z,11.30
2022-09-24T04:18:13.039Z,11.40
2022-09-24T04:19:16.015Z,11.40
2022-09-24T04:20:22.772Z,11.40
2022-09-24T04:21:26.247Z,11.40
2022-09-24T04:22:29.559Z,11.40
2022-09-24T04:23:32.514Z,11.40
2022-09-24T04:24:34.417Z,11.40
2022-09-24T04:25:37.598Z,11.40
2022-09-24T04:26:39.709Z,11.40
2022-09-24T04:27:42.938Z,11.40
2022-09-24T04:28:44.888Z,11.40
2022-09-24T04:29:47.789Z,11.40
2022-09-24T04:30:49.871Z,11.30
2022-09-24T04:31:52.917Z,11.30
2022-09-24T04:32:55.029Z,11.30
2022-09-24T04:33:57.930Z,11.40
2022-09-24T04:35:03.024Z,11.30
2022-09-24T04:36:08.410Z,11.30
2022-09-24T04:37:11.864Z,11.30
2022-09-24T04:38:15.162Z,11.30
2022-09-24T04:39:17.074Z,11.40
2022-09-24T04:40:20.494Z,11.40
2022-09-24T04:41:22.658Z,11.30
2022-09-24T04:42:26.331Z,11.40
2022-09-24T04:43:28.250Z,11.40
2022-09-24T04:44:31.148Z,11.40
2022-09-24T04:45:33.562Z,11.50
2022-09-24T04:46:36.516Z,11.40
2022-09-24T04:47:40.585Z,11.40
2022-09-24T04:48:43.517Z,11.40
2022-09-24T04:49:45.812Z,11.40
2022-09-24T04:50:48.794Z,11.40
2022-09-24T04:51:50.702Z,11.40
2022-09-24T04:52:55.138Z,11.30
2022-09-24T04:53:57.084Z,11.30
2022-09-24T04:55:00.529Z,11.30
2022-09-24T04:56:03.577Z,11.20
2022-09-24T04:57:06.474Z,11.20
2022-09-24T04:58:09.539Z,11.30
2022-09-24T04:59:11.545Z,11.30
2022-09-24T05:00:17.688Z,11.20
2022-09-24T05:01:20.446Z,11.20
2022-09-24T05:02:24.180Z,11.20
2022-09-24T05:03:26.397Z,11.20
2022-09-24T05:04:31.169Z,11.20
2022-09-24T05:05:34.283Z,11.20
2022-09-24T05:06:37.255Z,11.30
2022-09-24T05:07:39.784Z,11.10
2022-09-24T05:08:44.051Z,11.20
2022-09-24T05:09:45.953Z,11.20
2022-09-24T05:10:48.928Z,11.20
2022-09-24T05:11:51.389Z,11.20
2022-09-24T05:12:54.654Z,11.20
2022-09-24T05:13:56.606Z,11.20
2022-09-24T05:14:59.491Z,11.20
2022-09-24T05:16:01.911Z,11.20
2022-09-24T05:17:05.211Z,11.10
2022-09-24T05:18:07.135Z,11.10
2022-09-24T05:19:10.095Z,11.20
2022-09-24T05:20:12.514Z,11.20
2022-09-24T05:21:15.622Z,11.20
2022-09-24T05:22:17.561Z,11.30
2022-09-24T05:23:20.490Z,11.30
2022-09-24T05:24:23.848Z,11.40
2022-09-24T05:25:26.771Z,11.30
2022-09-24T05:26:47.242Z,11.30
2022-09-24T05:27:50.863Z,11.30
2022-09-24T05:28:53.104Z,11.50
2022-09-24T05:29:56.078Z,11.30
2022-09-24T05:30:58.380Z,11.30
2022-09-24T05:32:05.571Z,11.40
2022-09-24T05:33:07.894Z,11.40
2022-09-24T05:34:10.861Z,11.40
2022-09-24T05:35:13.823Z,11.50
2022-09-24T05:36:16.047Z,11.40
2022-09-24T05:37:18.983Z,11.50
2022-09-24T05:38:20.903Z,11.40
2022-09-24T05:39:27.954Z,11.60
2022-09-24T05:40:50.463Z,11.50
2022-09-24T05:41:53.482Z,11.50
2022-09-24T05:43:00.425Z,11.50
2022-09-24T05:44:03.785Z,11.50
2022-09-24T05:45:06.398Z,11.40
2022-09-24T05:46:09.437Z,11.50
2022-09-24T05:47:11.495Z,11.50
2022-09-24T05:48:14.420Z,11.50
2022-09-24T05:49:18.402Z,11.40
2022-09-24T05:50:22.978Z,11.50
2022-09-24T05:51:25.010Z,11.50
2022-09-24T05:52:27.948Z,11.50
2022-09-24T05:53:29.895Z,11.60
2022-09-24T05:54:34.156Z,11.60
2022-09-24T05:55:36.654Z,11.50
2022-09-24T05:56:39.818Z,11.50
2022-09-24T05:57:41.718Z,11.50
2022-09-24T05:58:44.842Z,11.60
2022-09-24T05:59:46.775Z,11.60
2022-09-24T06:00:49.872Z,11.60
2022-09-24T06:01:52.328Z,11.60
2022-09-24T06:02:55.392Z,11.60
2022-09-24T06:03:57.721Z,11.50
2022-09-24T06:05:00.629Z,11.60
2022-09-24T06:06:02.642Z,11.60
2022-09-24T06:07:05.546Z,11.60
2022-09-24T06:08:08.619Z,11.70
2022-09-24T06:09:11.734Z,11.70
2022-09-24T06:10:15.170Z,11.60
2022-09-24T06:11:18.366Z,11.70
2022-09-24T06:12:22.369Z,11.70
2022-09-24T06:13:25.375Z,11.80
2022-09-24T06:14:28.361Z,11.80
2022-09-24T06:15:31.298Z,11.90
2022-09-24T06:16:33.824Z,11.90
2022-09-24T06:17:36.781Z,11.90
2022-09-24T06:18:40.110Z,11.80
2022-09-24T06:19:45.244Z,11.90
2022-09-24T06:20:48.150Z,12.00
2022-09-24T06:21:50.074Z,11.90
2022-09-24T06:22:57.379Z,12.00
2022-09-24T06:23:59.325Z,12.00
2022-09-24T06:25:02.260Z,12.00
2022-09-24T06:26:07.742Z,12.10
2022-09-24T06:27:10.657Z,12.00
2022-09-24T06:28:12.567Z,12.10
2022-09-24T06:29:15.997Z,12.10
2022-09-24T06:30:17.906Z,12.10
2022-09-24T06:31:21.249Z,12.10
2022-09-24T06:32:24.185Z,12.20
2022-09-24T06:33:27.353Z,12.20
2022-09-24T06:34:29.286Z,12.20
2022-09-24T06:35:32.301Z,12.20
2022-09-24T06:36:35.657Z,12.20
2022-09-24T06:37:37.619Z,12.20
2022-09-24T06:38:41.173Z,12.20
2022-09-24T06:39:43.116Z,12.20
2022-09-24T06:40:48.343Z,12.20
2022-09-24T06:41:53.025Z,12.10
2022-09-24T06:42:55.001Z,12.10
2022-09-24T06:43:57.904Z,12.10
2022-09-24T06:44:59.829Z,12.10
2022-09-24T06:46:03.602Z,12.10
2022-09-24T06:47:05.650Z,12.20
2022-09-24T06:48:09.279Z,12.10
2022-09-24T06:49:11.383Z,12.20
2022-09-24T06:50:14.478Z,12.20
2022-09-24T06:51:17.618Z,12.20
2022-09-24T06:52:20.528Z,12.20
2022-09-24T06:53:23.751Z,12.20
2022-09-24T06:54:25.925Z,12.30
2022-09-24T06:55:28.836Z,12.20
2022-09-24T06:56:31.070Z,12.30
2022-09-24T06:57:35.322Z,12.30
2022-09-24T06:58:38.238Z,12.20
2022-09-24T06:59:40.155Z,12.30
2022-09-24T07:00:44.843Z,12.30
2022-09-24T07:01:46.905Z,12.20
2022-09-24T07:02:52.960Z,12.30
2022-09-24T07:03:54.922Z,12.20
2022-09-24T07:04:57.861Z,12.20
2022-09-24T07:06:02.676Z,12.20
2022-09-24T07:07:24.093Z,12.30
2022-09-24T07:08:27.022Z,12.30
2022-09-24T07:09:28.962Z,12.40
2022-09-24T07:10:32.139Z,12.40
2022-09-24T07:11:34.049Z,12.50
2022-09-24T07:12:38.386Z,12.50
2022-09-24T07:13:40.376Z,12.40
2022-09-24T07:14:43.306Z,12.40
2022-09-24T07:15:45.815Z,12.50
2022-09-24T07:16:48.924Z,12.50
2022-09-24T07:17:56.070Z,12.60
2022-09-24T07:18:59.284Z,12.50
2022-09-24T07:20:01.889Z,12.50
2022-09-24T07:21:04.868Z,12.50
2022-09-24T07:22:06.820Z,12.50
2022-09-24T07:23:11.225Z,12.40
2022-09-24T07:24:13.165Z,12.40
2022-09-24T07:25:16.222Z,12.40
2022-09-24T07:26:18.125Z,12.40
2022-09-24T07:27:21.299Z,12.40
2022-09-24T07:28:24.839Z,12.30
2022-09-24T07:29:27.859Z,12.30
2022-09-24T07:30:30.796Z,12.30
2022-09-24T07:31:33.595Z,12.30
2022-09-24T07:32:36.936Z,12.40
2022-09-24T07:33:38.917Z,12.30
2022-09-24T07:34:42.223Z,12.40
2022-09-24T07:35:44.117Z,12.40
2022-09-24T07:36:47.087Z,12.40
2022-09-24T07:37:49.076Z,12.40
2022-09-24T07:38:52.143Z,12.50
2022-09-24T07:39:54.053Z,12.50
2022-09-24T07:40:59.321Z,12.50
2022-09-24T07:42:01.926Z,12.50
2022-09-24T07:43:04.880Z,12.60
2022-09-24T07:44:08.394Z,12.60
2022-09-24T07:45:12.001Z,12.60
2022-09-24T07:46:14.034Z,12.60
2022-09-24T07:47:17.015Z,12.70
2022-09-24T07:48:19.128Z,12.70
2022-09-24T07:49:23.094Z,12.70
2022-09-24T07:50:25.250Z,12.80
2022-09-24T07:51:29.290Z,12.80
2022-09-24T07:52:31.237Z,12.80
2022-09-24T07:53:34.120Z,12.90
2022-09-24T07:54:36.082Z,12.90
2022-09-24T07:55:40.471Z,13.00
2022-09-24T07:56:42.439Z,13.00
2022-09-24T07:57:48.494Z,13.00
2022-09-24T07:58:51.967Z,13.00
2022-09-24T07:59:55.239Z,13.10
2022-09-24T08:00:59.703Z,13.10
2022-09-24T08:02:01.753Z,13.20
2022-09-24T08:03:05.986Z,13.30
2022-09-24T08:04:08.108Z,13.40
2022-09-24T08:05:11.787Z,13.30
2022-09-24T08:06:13.902Z,13.30
2022-09-24T08:07:16.782Z,13.30
2022-09-24T08:08:20.722Z,13.30
2022-09-24T08:09:23.862Z,13.40
2022-09-24T08:10:27.202Z,13.40
2022-09-24T08:11:30.682Z,13.40
2022-09-24T08:12:32.672Z,13.40
2022-09-24T08:13:36.106Z,13.40
2022-09-24T08:14:38.030Z,13.40
2022-09-24T08:15:42.508Z,13.40
2022-09-24T08:16:44.474Z,13.40
2022-09-24T08:17:47.367Z,13.40
2022-09-24T08:18:49.321Z,13.40
2022-09-24T08:19:53.525Z,13.40
2022-09-24T08:20:55.474Z,13.40
2022-09-24T08:21:58.974Z,13.40
2022-09-24T08:23:03.140Z,13.50
2022-09-24T08:24:06.272Z,13.50
2022-09-24T08:25:09.589Z,13.50
2022-09-24T08:26:12.505Z,13.60
2022-09-24T08:27:17.419Z,13.60
2022-09-24T08:28:19.804Z,13.60
2022-09-24T08:29:22.717Z,13.70
2022-09-24T08:30:24.930Z,13.70
2022-09-24T08:31:30.527Z,13.70
2022-09-24T08:32:32.791Z,13.70
2022-09-24T08:33:36.731Z,13.70
2022-09-24T08:34:40.536Z,13.70
2022-09-24T08:35:43.469Z,13.70
2022-09-24T08:36:45.374Z,13.70
2022-09-24T08:37:48.307Z,13.70
2022-09-24T08:38:54.833Z,13.70
2022-09-24T08:39:57.829Z,13.80
2022-09-24T08:41:17.180Z,13.80
2022-09-24T08:42:30.775Z,13.80
2022-09-24T08:43:46.132Z,13.80
2022-09-24T08:45:08.873Z,13.90
2022-09-24T08:46:35.301Z,13.90
2022-09-24T08:47:45.719Z,13.90
2022-09-24T08:48:53.541Z,14.00
2022-09-24T08:50:07.110Z,14.10
2022-09-24T08:51:17.255Z,14.00
2022-09-24T08:52:29.392Z,14.00
2022-09-24T08:53:45.383Z,14.10
2022-09-24T08:54:48.873Z,14.10
2022-09-24T08:55:55.289Z,14.20
2022-09-24T08:56:58.690Z,14.20
2022-09-24T08:58:19.611Z,14.20
2022-09-24T08:59:28.568Z,14.20
2022-09-24T09:00:32.682Z,14.30
2022-09-24T09:01:45.638Z,14.30
2022-09-24T09:02:58.444Z,14.40
2022-09-24T09:04:14.336Z,14.40
2022-09-24T09:05:27.375Z,14.40
2022-09-24T09:06:54.553Z,14.50
2022-09-24T09:08:01.943Z,14.50
2022-09-24T09:09:12.245Z,14.50
2022-09-24T09:10:18.038Z,14.50
2022-09-24T09:11:24.891Z,14.50
2022-09-24T09:12:31.368Z,14.50
2022-09-24T09:13:38.814Z,14.50
2022-09-24T09:14:46.308Z,14.50
2022-09-24T09:15:54.113Z,14.60
2022-09-24T09:17:01.465Z,14.60
2022-09-24T09:18:13.266Z,14.60
2022-09-24T09:19:18.536Z,14.70
2022-09-24T09:20:26.346Z,14.70
2022-09-24T09:23:14.526Z,14.70
2022-09-24T09:24:18.988Z,14.80
2022-09-24T09:25:25.446Z,14.70
2022-09-24T09:26:27.406Z,14.80
2022-09-24T09:27:33.320Z,14.80
2022-09-24T09:28:35.466Z,14.90
2022-09-24T09:29:38.397Z,14.90
2022-09-24T09:30:52.907Z,15.00
2022-09-24T09:32:06.354Z,15.00
2022-09-24T09:33:23.859Z,15.00
2022-09-24T09:34:50.323Z,15.00
2022-09-24T09:36:01.751Z,15.00
2022-09-24T09:37:14.790Z,15.00
2022-09-24T09:38:23.551Z,15.00
2022-09-24T09:39:37.284Z,15.00
2022-09-24T09:40:45.582Z,15.00
2022-09-24T09:41:54.185Z,15.00
2022-09-24T09:43:02.879Z,15.00
2022-09-24T09:44:13.786Z,15.00
2022-09-24T09:45:32.419Z,15.00
2022-09-24T09:46:41.802Z,15.00
2022-09-24T09:47:48.610Z,14.90
2022-09-24T09:48:57.391Z,15.00
2022-09-24T09:50:05.826Z,15.00
2022-09-24T09:51:22.357Z,15.00
2022-09-24T09:52:29.318Z,15.00
2022-09-24T09:53:32.515Z,15.00
2022-09-24T09:54:38.014Z,15.00
2022-09-24T09:55:40.941Z,15.00
2022-09-24T09:56:45.652Z,15.00
2022-09-24T09:57:48.863Z,15.10
2022-09-24T09:58:55.714Z,15.10
2022-09-24T09:59:58.731Z,15.10
2022-09-24T10:01:05.993Z,15.10
2022-09-24T10:02:13.352Z,15.10
2022-09-24T10:03:24.976Z,15.10
2022-09-24T10:04:39.544Z,15.10
2022-09-24T10:05:42.468Z,15.20
2022-09-24T10:06:44.450Z,15.20
2022-09-24T10:07:47.553Z,15.20
2022-09-24T10:08:49.583Z,15.20
2022-09-24T10:10:04.212Z,15.20
2022-09-24T10:11:07.638Z,15.20
2022-09-24T10:12:17.020Z,15.20
2022-09-24T10:13:19.910Z,15.20
2022-09-24T10:14:21.860Z,15.20
2022-09-24T10:15:25.778Z,15.20
2022-09-24T10:16:27.862Z,15.10
2022-09-24T10:17:35.955Z,15.20
2022-09-24T10:18:42.935Z,15.20
2022-09-24T10:19:50.672Z,15.20
2022-09-24T10:20:54.047Z,15.20
2022-09-24T10:21:57.430Z,15.20
2022-09-24T10:23:03.193Z,15.20
2022-09-24T10:24:11.753Z,15.20
2022-09-24T10:25:20.030Z,15.20
2022-09-24T10:26:22.065Z,15.10
2022-09-24T10:27:31.717Z,15.20
2022-09-24T10:28:53.633Z,15.20
2022-09-24T10:30:15.135Z,15.10
2022-09-24T10:31:21.235Z,15.10
2022-09-24T10:32:25.159Z,15.10
2022-09-24T10:33:28.893Z,15.10
2022-09-24T10:34:31.472Z,15.00
2022-09-24T10:35:38.639Z,15.00
2022-09-24T10:36:51.748Z,15.00
2022-09-24T10:37:56.259Z,15.00
2022-09-24T10:39:11.557Z,15.00
2022-09-24T10:40:16.322Z,15.00
2022-09-24T10:41:26.989Z,15.00
2022-09-24T10:42:31.612Z,15.00
2022-09-24T10:43:35.416Z,15.00
2022-09-24T10:44:37.703Z,15.00
2022-09-24T10:45:56.442Z,15.00
2022-09-24T10:47:19.113Z,15.00
2022-09-24T10:48:27.174Z,15.00
2022-09-24T10:49:41.645Z,15.00
2022-09-24T10:50:54.334Z,15.00
2022-09-24T10:52:03.799Z,15.00
2022-09-24T10:53:14.400Z,15.00
2022-09-24T10:54:35.859Z,15.00
2022-09-24T10:55:47.275Z,15.00
2022-09-24T10:56:53.586Z,15.00
2022-09-24T10:58:04.433Z,15.00
2022-09-24T10:59:33.609Z,15.00
2022-09-24T11:00:41.042Z,15.00
2022-09-24T11:01:48.922Z,15.00
2022-09-24T11:03:24.382Z,15.00
2022-09-24T11:04:39.918Z,15.10
2022-09-24T11:05:52.694Z,15.10
2022-09-24T11:07:30.270Z,15.10
2022-09-24T11:09:02.637Z,15.10
2022-09-24T11:10:17.845Z,15.10
2022-09-24T11:11:31.246Z,15.10
2022-09-24T11:12:41.083Z,15.20
2022-09-24T11:13:55.821Z,15.20
2022-09-24T11:15:20.052Z,15.30
2022-09-24T11:16:42.750Z,15.30
2022-09-24T11:17:56.278Z,15.20
2022-09-24T11:19:03.298Z,15.20
2022-09-24T11:20:24.186Z,15.20
2022-09-24T11:21:41.181Z,15.20
2022-09-24T11:22:58.096Z,15.10
2022-09-24T11:24:17.571Z,15.10
2022-09-24T11:25:31.858Z,15.10
2022-09-24T11:26:49.512Z,15.10
2022-09-24T11:27:58.491Z,15.10
2022-09-24T11:29:37.294Z,15.10
2022-09-24T11:30:51.769Z,15.10
2022-09-24T11:32:06.386Z,15.10
2022-09-24T11:33:26.238Z,15.10
2022-09-24T11:34:43.142Z,15.10
2022-09-24T11:35:59.199Z,15.10
2022-09-24T11:37:17.038Z,15.10
2022-09-24T11:38:32.647Z,15.10
2022-09-24T11:39:51.969Z,15.10
2022-09-24T11:41:12.981Z,15.10
2022-09-24T11:42:22.609Z,15.00
2022-09-24T11:43:41.359Z,15.00
2022-09-24T11:45:08.379Z,15.00
2022-09-24T11:46:27.963Z,15.00
2022-09-24T11:47:46.721Z,14.90
2022-09-24T11:49:22.697Z,15.00
2022-09-24T11:50:36.688Z,15.00
2022-09-24T11:51:53.439Z,15.00
2022-09-24T11:53:02.796Z,15.00
2022-09-24T11:54:27.180Z,15.00
2022-09-24T11:55:34.742Z,15.00
2022-09-24T11:56:42.132Z,15.00
2022-09-24T11:57:49.753Z,15.00
2022-09-24T11:59:00.194Z,15.00
2022-09-24T12:00:07.463Z,15.00
2022-09-24T12:01:14.655Z,15.00
2022-09-24T12:03:58.304Z,15.00
2022-09-24T12:05:06.854Z,15.00
2022-09-24T12:06:14.445Z,15.00
2022-09-24T12:07:23.486Z,15.00
2022-09-24T12:08:31.037Z,15.00
2022-09-24T12:09:37.376Z,15.00
2022-09-24T12:10:46.078Z,15.00
2022-09-24T12:11:54.419Z,15.00
2022-09-24T12:13:04.479Z,15.00
2022-09-24T12:14:13.206Z,15.00
2022-09-24T12:15:20.575Z,16.20
2022-09-24T12:16:26.817Z,15.00
2022-09-24T12:17:37.275Z,15.00
2022-09-24T12:18:45.022Z,15.00
2022-09-24T12:19:53.915Z,15.00
2022-09-24T12:21:01.478Z,14.90
2022-09-24T12:22:05.822Z,15.00
2022-09-24T12:23:13.291Z,15.00
2022-09-24T12:24:22.266Z,15.00
2022-09-24T12:25:26.644Z,15.00
2022-09-24T12:26:31.201Z,15.00
2022-09-24T12:27:35.119Z,15.00
2022-09-24T12:29:00.854Z,15.00
2022-09-24T12:30:34.310Z,15.00
2022-09-24T12:32:04.093Z,15.00
2022-09-24T12:33:15.494Z,15.00
2022-09-24T12:34:26.225Z,15.00
2022-09-24T12:35:40.429Z,15.00
2022-09-24T12:36:57.542Z,15.00
2022-09-24T12:38:04.378Z,15.00
2022-09-24T12:39:10.659Z,15.00
2022-09-24T12:40:32.866Z,15.00
2022-09-24T12:41:37.754Z,15.00
2022-09-24T12:42:44.163Z,15.00
2022-09-24T12:43:50.684Z,15.00
2022-09-24T12:44:56.385Z,15.00
2022-09-24T12:46:02.328Z,15.00
2022-09-24T12:47:07.166Z,15.00
2022-09-24T12:48:15.822Z,15.10
2022-09-24T12:49:26.724Z,15.10
2022-09-24T12:50:31.589Z,15.10
2022-09-24T12:51:37.983Z,15.00
2022-09-24T12:52:41.291Z,15.10
2022-09-24T12:53:55.738Z,15.10
2022-09-24T12:55:00.964Z,15.10
2022-09-24T12:56:06.134Z,15.10
2022-09-24T12:57:11.372Z,15.10
2022-09-24T12:58:29.706Z,15.10
2022-09-24T12:59:32.628Z,15.10
2022-09-24T13:00:39.095Z,15.00
2022-09-24T13:01:42.086Z,15.10
2022-09-24T13:02:46.155Z,15.10
2022-09-24T13:04:04.082Z,15.10
2022-09-24T13:05:19.652Z,15.10
2022-09-24T13:06:31.124Z,15.10
2022-09-24T13:07:36.502Z,15.10
2022-09-24T13:08:40.045Z,15.00
2022-09-24T13:09:43.669Z,15.00
2022-09-24T13:10:54.814Z,15.00
2022-09-24T13:12:06.384Z,15.00
2022-09-24T13:13:23.626Z,15.10
2022-09-24T13:14:29.957Z,15.10
2022-09-24T13:15:34.694Z,15.10
2022-09-24T13:16:43.081Z,15.10
2022-09-24T13:17:45.056Z,15.10
2022-09-24T13:18:53.793Z,15.10
2022-09-24T13:19:59.850Z,15.10
2022-09-24T13:21:05.539Z,15.10
2022-09-24T13:22:21.214Z,15.10
2022-09-24T13:23:33.644Z,15.10
2022-09-24T13:24:48.505Z,15.10
2022-09-24T13:25:55.849Z,15.10
2022-09-24T13:27:25.230Z,15.10
2022-09-24T13:28:38.201Z,15.10
2022-09-24T13:29:42.931Z,15.10
2022-09-24T13:30:48.629Z,15.10
2022-09-24T13:31:57.158Z,15.10
2022-09-24T13:33:02.579Z,15.10
2022-09-24T13:34:15.393Z,15.10
2022-09-24T13:35:23.647Z,15.00
2022-09-24T13:36:31.238Z,15.00
2022-09-24T13:37:39.338Z,15.00
2022-09-24T13:38:49.566Z,14.90
2022-09-24T13:39:57.294Z,14.90
2022-09-24T13:41:08.106Z,14.90
2022-09-24T13:42:20.964Z,14.90
2022-09-24T13:43:45.467Z,14.80
2022-09-24T13:44:52.951Z,14.80
2022-09-24T13:45:54.968Z,14.80
2022-09-24T13:47:01.270Z,14.80
2022-09-24T13:48:05.893Z,14.80
2022-09-24T13:49:13.676Z,14.80
2022-09-24T13:50:18.954Z,14.80
2022-09-24T13:51:27.621Z,14.80
2022-09-24T13:52:35.429Z,14.80
2022-09-24T13:53:40.086Z,14.80
2022-09-24T13:54:52.072Z,14.80
2022-09-24T13:55:57.203Z,14.80
2022-09-24T13:57:12.334Z,14.80
2022-09-24T13:58:28.250Z,14.90
2022-09-24T13:59:31.238Z,14.90
2022-09-24T14:00:43.142Z,14.90
2022-09-24T14:01:47.068Z,15.00
2022-09-24T14:03:00.649Z,14.90
2022-09-24T14:04:06.382Z,14.90
2022-09-24T14:05:18.125Z,15.00
2022-09-24T14:06:31.626Z,15.00
2022-09-24T14:07:33.582Z,15.00
2022-09-24T14:08:38.556Z,15.00
2022-09-24T14:09:40.482Z,14.90
2022-09-24T14:10:44.216Z,14.90
2022-09-24T14:11:50.956Z,14.90
2022-09-24T14:13:08.828Z,14.90
2022-09-24T14:14:19.802Z,15.00
2022-09-24T14:15:21.714Z,14.90
2022-09-24T14:16:25.976Z,14.90
2022-09-24T14:17:27.988Z,14.90
2022-09-24T14:18:30.987Z,14.90
2022-09-24T14:19:34.518Z,14.90
2022-09-24T14:20:37.705Z,14.90
2022-09-24T14:21:44.197Z,14.90
2022-09-24T14:22:47.782Z,14.90